createdAt,value
2017-03-03T00:00:55.677Z,82.89
2017-03-03T00:01:56.898Z,82.51
2017-03-03T00:02:58.146Z,82.7
2017-03-03T00:03:59.396Z,82.51
2017-03-03T00:05:00.657Z,82.98
2017-03-03T00:06:01.951Z,82.79
2017-03-03T00:07:03.163Z,82.79
2017-03-03T00:08:04.404Z,82.89
2017-03-03T00:09:05.644Z,82.89
2017-03-03T00:10:06.888Z,83.17
2017-03-03T00:11:08.155Z,83.36
2017-03-03T00:12:09.492Z,83.27
2017-03-03T00:13:10.729Z,83.36
2017-03-03T00:14:12.015Z,82.42
2017-03-03T00:15:13.258Z,83.36
2017-03-03T00:16:14.504Z,83.36
2017-03-03T00:17:15.859Z,83.36
2017-03-03T00:18:17.108Z,82.6
2017-03-03T00:19:18.361Z,82.51
2017-03-03T00:20:19.604Z,82.7
2017-03-03T00:21:20.850Z,82.98
2017-03-03T00:22:22.099Z,82.98
2017-03-03T00:23:23.340Z,82.7
2017-03-03T00:24:24.589Z,82.6
2017-03-03T00:25:25.931Z,82.98
2017-03-03T00:26:27.181Z,82.7
2017-03-03T00:27:28.418Z,82.7
2017-03-03T00:28:29.656Z,82.7
2017-03-03T00:29:30.910Z,82.98
2017-03-03T00:30:32.143Z,82.98
2017-03-03T00:31:33.415Z,82.98
2017-03-03T00:32:34.673Z,82.7
2017-03-03T00:33:35.902Z,82.89
2017-03-03T00:34:37.142Z,82.6
2017-03-03T00:35:38.372Z,82.79
2017-03-03T00:36:39.768Z,82.6
2017-03-03T00:37:40.950Z,82.89
2017-03-03T00:38:42.238Z,82.89
2017-03-03T00:39:43.461Z,83.36
2017-03-03T00:40:44.704Z,83.17
2017-03-03T00:41:46.026Z,83.17
2017-03-03T00:42:47.269Z,83.36
2017-03-03T00:43:48.505Z,83.27
2017-03-03T00:44:49.778Z,82.32
2017-03-03T00:45:51.006Z,83.17
2017-03-03T00:46:52.253Z,83.17
2017-03-03T00:47:53.480Z,83.46
2017-03-03T00:48:54.732Z,83.17
2017-03-03T00:49:56.035Z,82.79
2017-03-03T00:50:57.361Z,82.51
2017-03-03T00:51:58.617Z,82.7
2017-03-03T00:52:59.853Z,82.51
2017-03-03T00:54:01.100Z,83.17
2017-03-03T00:55:02.392Z,83.08
2017-03-03T00:56:03.643Z,83.27
2017-03-03T00:57:04.898Z,83.23
2017-03-03T00:58:06.122Z,82.13
2017-03-03T00:59:07.382Z,83.27
2017-03-03T01:00:08.637Z,83.13
2017-03-03T01:01:09.975Z,83.17
2017-03-03T01:02:11.259Z,83.17
2017-03-03T01:03:12.536Z,83.23
2017-03-03T01:04:13.795Z,83.13
2017-03-03T01:05:15.056Z,82.47
2017-03-03T01:06:16.293Z,82.28
2017-03-03T01:07:17.558Z,83.13
2017-03-03T01:08:18.859Z,83.13
2017-03-03T01:09:20.218Z,83.42
2017-03-03T01:10:21.444Z,83.13
2017-03-03T01:11:22.679Z,83.04
2017-03-03T01:12:23.916Z,82.94
2017-03-03T01:13:25.150Z,82.85
2017-03-03T01:14:26.387Z,83.04
2017-03-03T01:15:27.646Z,82.66
2017-03-03T01:16:29.048Z,82.94
2017-03-03T01:17:30.314Z,83.04
2017-03-03T01:18:31.514Z,83.42
2017-03-03T01:19:32.744Z,83.32
2017-03-03T01:20:33.983Z,83.42
2017-03-03T01:21:35.321Z,83.32
2017-03-03T01:22:36.471Z,83.98
2017-03-03T01:23:37.679Z,83.89
2017-03-03T01:24:38.920Z,83.8
2017-03-03T01:25:40.159Z,83.7
2017-03-03T01:26:41.410Z,83.51
2017-03-03T01:27:42.667Z,83.61
2017-03-03T01:28:43.948Z,83.51
2017-03-03T01:29:45.238Z,83.61
2017-03-03T01:30:46.409Z,83.8
2017-03-03T01:31:47.625Z,83.7
2017-03-03T01:32:48.856Z,83.7
2017-03-03T01:33:50.112Z,83.61
2017-03-03T01:34:51.412Z,83.89
2017-03-03T01:35:52.631Z,84.27
2017-03-03T01:36:53.868Z,84.17
2017-03-03T01:37:55.105Z,84.08
2017-03-03T01:38:56.354Z,83.98
2017-03-03T01:39:57.587Z,83.98
2017-03-03T01:40:58.836Z,84.27
2017-03-03T01:42:00.107Z,84.27
2017-03-03T01:43:01.328Z,84.08
2017-03-03T01:44:02.567Z,84.17
2017-03-03T01:45:03.816Z,84.65
2017-03-03T01:46:05.044Z,84.65
2017-03-03T01:47:06.280Z,84.74
2017-03-03T01:48:07.521Z,85.13
2017-03-03T01:49:08.805Z,84.84
2017-03-03T01:50:10.027Z,85.03
2017-03-03T01:51:11.308Z,85.22
2017-03-03T01:52:12.551Z,85.03
2017-03-03T01:53:13.786Z,85.22
2017-03-03T01:54:15.024Z,84.84
2017-03-03T01:55:16.289Z,84.94
2017-03-03T01:56:17.516Z,85.13
2017-03-03T01:57:18.755Z,85.03
2017-03-03T01:58:20.005Z,85.03
2017-03-03T01:59:21.229Z,85.31
2017-03-03T02:00:22.468Z,85.13
2017-03-03T02:01:23.727Z,85.31
2017-03-03T02:02:24.953Z,85.13
2017-03-03T02:03:26.273Z,84.84
2017-03-03T02:04:27.507Z,85.31
2017-03-03T02:05:28.737Z,85.78
2017-03-03T02:06:30.084Z,85.69
2017-03-03T02:07:31.347Z,85.69
2017-03-03T02:08:32.560Z,85.88
2017-03-03T02:09:33.912Z,85.6
2017-03-03T02:10:35.250Z,85.69
2017-03-03T02:11:36.491Z,85.65
2017-03-03T02:12:37.810Z,85.69
2017-03-03T02:13:39.067Z,85.5
2017-03-03T02:14:40.288Z,85.88
2017-03-03T02:15:41.553Z,85.6
2017-03-03T02:16:42.796Z,85.93
2017-03-03T02:17:44.017Z,85.93
2017-03-03T02:18:45.274Z,85.93
2017-03-03T02:19:46.509Z,86.26
2017-03-03T02:20:47.744Z,86.35
2017-03-03T02:21:49.087Z,86.55
2017-03-03T02:22:50.322Z,86.41
2017-03-03T02:23:51.552Z,86.22
2017-03-03T02:24:52.771Z,86.6
2017-03-03T02:25:54.011Z,86.22
2017-03-03T02:26:55.267Z,86.79
2017-03-03T02:27:56.507Z,86.98
2017-03-03T02:28:57.797Z,86.88
2017-03-03T02:29:59.035Z,86.98
2017-03-03T02:31:00.266Z,86.98
2017-03-03T02:32:01.484Z,86.69
2017-03-03T02:33:02.739Z,86.69
2017-03-03T02:34:04.051Z,86.79
2017-03-03T02:35:05.302Z,86.98
2017-03-03T02:36:06.512Z,86.98
2017-03-03T02:37:07.757Z,87.16
2017-03-03T02:38:08.990Z,87.45
2017-03-03T02:39:10.238Z,87.45
2017-03-03T02:40:11.509Z,87.16
2017-03-03T02:41:12.795Z,87.64
2017-03-03T02:42:13.994Z,87.64
2017-03-03T02:43:15.227Z,87.45
2017-03-03T02:44:16.467Z,87.83
2017-03-03T02:45:17.706Z,87.64
2017-03-03T02:46:18.932Z,87.45
2017-03-03T02:47:20.183Z,87.64
2017-03-03T02:48:21.522Z,87.64
2017-03-03T02:49:22.753Z,87.83
2017-03-03T02:50:24.020Z,87.64
2017-03-03T02:51:25.227Z,87.83
2017-03-03T02:52:26.471Z,88.11
2017-03-03T02:53:27.783Z,88.11
2017-03-03T02:54:29.083Z,87.92
2017-03-03T02:55:30.245Z,88.11
2017-03-03T02:56:31.475Z,88.02
2017-03-03T02:57:32.703Z,87.92
2017-03-03T02:58:34.022Z,88.11
2017-03-03T02:59:35.246Z,87.92
2017-03-03T03:00:36.489Z,87.92
2017-03-03T03:01:37.830Z,87.92
2017-03-03T03:02:39.139Z,87.73
2017-03-03T03:03:40.392Z,88.3
2017-03-03T03:04:41.596Z,88.21
2017-03-03T03:05:42.903Z,88.4
2017-03-03T03:06:44.145Z,88.96
2017-03-03T03:07:45.395Z,88.49
2017-03-03T03:08:46.635Z,88.4
2017-03-03T03:09:47.871Z,88.78
2017-03-03T03:10:49.107Z,88.96
2017-03-03T03:11:50.472Z,88.96
2017-03-03T03:12:51.783Z,89.06
2017-03-03T03:13:53.078Z,89.15
2017-03-03T03:14:54.297Z,88.87
2017-03-03T03:15:55.539Z,89.06
2017-03-03T03:16:56.779Z,88.87
2017-03-03T03:17:58.062Z,89.15
2017-03-03T03:18:59.333Z,89.53
2017-03-03T03:20:00.554Z,88.96
2017-03-03T03:21:01.835Z,89.11
2017-03-03T03:22:03.064Z,89.34
2017-03-03T03:23:04.304Z,89.53
2017-03-03T03:24:05.547Z,89.01
2017-03-03T03:25:06.792Z,88.73
2017-03-03T03:26:08.052Z,89.49
2017-03-03T03:27:09.269Z,89.01
2017-03-03T03:28:10.511Z,89.2
2017-03-03T03:29:11.737Z,89.2
2017-03-03T03:30:12.973Z,89.49
2017-03-03T03:31:14.227Z,89.58
2017-03-03T03:32:15.599Z,89.39
2017-03-03T03:33:16.837Z,89.3
2017-03-03T03:34:18.088Z,89.58
2017-03-03T03:35:19.305Z,89.2
2017-03-03T03:36:20.544Z,89.77
2017-03-03T03:37:21.781Z,89.68
2017-03-03T03:38:23.066Z,89.2
2017-03-03T03:39:24.410Z,89.3
2017-03-03T03:40:25.629Z,89.58
2017-03-03T03:41:26.882Z,90.15
2017-03-03T03:42:28.097Z,89.87
2017-03-03T03:43:29.331Z,90.25
2017-03-03T03:44:30.598Z,89.96
2017-03-03T03:45:31.997Z,89.87
2017-03-03T03:46:33.237Z,89.96
2017-03-03T03:47:34.463Z,90.25
2017-03-03T03:48:35.723Z,90.44
2017-03-03T03:49:36.940Z,90.34
2017-03-03T03:50:38.232Z,90.53
2017-03-03T03:51:39.483Z,90.44
2017-03-03T03:52:40.735Z,90.44
2017-03-03T03:53:41.942Z,90.25
2017-03-03T03:54:43.179Z,90.15
2017-03-03T03:55:44.416Z,90.25
2017-03-03T03:56:45.677Z,90.15
2017-03-03T03:57:46.904Z,90.06
2017-03-03T03:58:48.143Z,90.25
2017-03-03T03:59:49.372Z,89.87
2017-03-03T04:00:50.603Z,90.06
2017-03-03T04:01:51.873Z,90.15
2017-03-03T04:02:53.088Z,90.06
2017-03-03T04:03:54.303Z,89.87
2017-03-03T04:04:55.571Z,89.87
2017-03-03T04:05:56.790Z,89.87
2017-03-03T04:06:58.026Z,89.87
2017-03-03T04:07:59.334Z,90.06
2017-03-03T04:09:00.525Z,90.34
2017-03-03T04:10:01.776Z,90.25
2017-03-03T04:11:03.003Z,90.34
2017-03-03T04:12:04.243Z,89.96
2017-03-03T04:13:05.474Z,90.25
2017-03-03T04:14:06.705Z,90.25
2017-03-03T04:15:07.942Z,90.15
2017-03-03T04:16:09.212Z,90.34
2017-03-03T04:17:10.431Z,90.25
2017-03-03T04:18:11.738Z,90.25
2017-03-03T04:19:12.979Z,90.25
2017-03-03T04:20:14.397Z,90.34
2017-03-03T04:21:15.628Z,90.44
2017-03-03T04:22:16.891Z,90.06
2017-03-03T04:23:18.114Z,89.96
2017-03-03T04:24:19.531Z,90.25
2017-03-03T04:25:20.765Z,90.34
2017-03-03T04:26:22.025Z,90.06
2017-03-03T04:27:23.232Z,90.25
2017-03-03T04:28:24.514Z,90.44
2017-03-03T04:29:25.922Z,90.34
2017-03-03T04:30:27.052Z,90.44
2017-03-03T04:31:28.287Z,90.25
2017-03-03T04:32:29.525Z,90.44
2017-03-03T04:33:30.759Z,90.44
2017-03-03T04:34:31.989Z,90.15
2017-03-03T04:35:33.224Z,90.34
2017-03-03T04:36:34.513Z,90.34
2017-03-03T04:37:35.948Z,89.96
2017-03-03T04:38:37.197Z,90.34
2017-03-03T04:39:38.411Z,90.34
2017-03-03T04:40:39.645Z,90.44
2017-03-03T04:41:40.913Z,90.53
2017-03-03T04:42:42.131Z,90.44
2017-03-03T04:43:43.440Z,90.15
2017-03-03T04:44:44.589Z,90.25
2017-03-03T04:45:45.822Z,90.06
2017-03-03T04:46:47.055Z,89.87
2017-03-03T04:47:48.295Z,89.87
2017-03-03T04:48:49.540Z,89.87
2017-03-03T04:49:50.795Z,90.25
2017-03-03T04:50:52.085Z,90.44
2017-03-03T04:51:53.313Z,90.25
2017-03-03T04:52:54.545Z,90.15
2017-03-03T04:53:55.771Z,90.06
2017-03-03T04:54:57.001Z,89.96
2017-03-03T04:55:58.250Z,90.25
2017-03-03T04:56:59.693Z,90.15
2017-03-03T04:58:00.927Z,90.06
2017-03-03T04:59:02.156Z,90.25
2017-03-03T05:00:03.388Z,90.15
2017-03-03T05:01:04.736Z,90.15
2017-03-03T05:02:05.963Z,89.77
2017-03-03T05:03:07.195Z,89.96
2017-03-03T05:04:08.437Z,89.87
2017-03-03T05:05:09.671Z,90.25
2017-03-03T05:06:10.892Z,90.34
2017-03-03T05:07:12.126Z,89.58
2017-03-03T05:08:13.377Z,89.49
2017-03-03T05:09:14.708Z,89.2
2017-03-03T05:10:16.026Z,89.3
2017-03-03T05:11:17.242Z,89.39
2017-03-03T05:12:18.677Z,89.2
2017-03-03T05:13:19.947Z,89.3
2017-03-03T05:14:21.175Z,89.39
2017-03-03T05:15:22.414Z,89.11
2017-03-03T05:16:23.651Z,89.2
2017-03-03T05:17:24.902Z,88.92
2017-03-03T05:18:26.131Z,88.73
2017-03-03T05:19:27.361Z,89.01
2017-03-03T05:20:28.641Z,88.92
2017-03-03T05:21:29.880Z,89.3
2017-03-03T05:22:31.128Z,89.01
2017-03-03T05:23:32.368Z,89.3
2017-03-03T05:24:33.600Z,89.01
2017-03-03T05:25:34.832Z,88.35
2017-03-03T05:26:36.180Z,88.64
2017-03-03T05:27:37.477Z,88.54
2017-03-03T05:28:38.714Z,88.45
2017-03-03T05:29:39.942Z,88.73
2017-03-03T05:30:41.215Z,88.64
2017-03-03T05:31:42.412Z,88.64
2017-03-03T05:32:43.649Z,88.82
2017-03-03T05:33:44.892Z,88.73
2017-03-03T05:34:46.210Z,88.45
2017-03-03T05:35:47.458Z,89.01
2017-03-03T05:36:48.681Z,88.82
2017-03-03T05:37:49.916Z,88.92
2017-03-03T05:38:51.156Z,88.92
2017-03-03T05:39:52.574Z,88.35
2017-03-03T05:40:54.184Z,88.73
2017-03-03T05:41:55.420Z,88.64
2017-03-03T05:42:56.651Z,88.35
2017-03-03T05:43:57.882Z,88.45
2017-03-03T05:44:59.143Z,88.64
2017-03-03T05:46:00.374Z,88.64
2017-03-03T05:47:01.609Z,88.73
2017-03-03T05:48:02.842Z,88.73
2017-03-03T05:49:04.069Z,88.26
2017-03-03T05:50:05.304Z,88.35
2017-03-03T05:51:06.536Z,88.17
2017-03-03T05:52:07.767Z,88.45
2017-03-03T05:53:09.006Z,88.17
2017-03-03T05:54:10.241Z,88.07
2017-03-03T05:55:11.514Z,87.78
2017-03-03T05:56:12.768Z,87.59
2017-03-03T05:57:13.990Z,87.78
2017-03-03T05:58:15.211Z,87.59
2017-03-03T05:59:16.580Z,87.5
2017-03-03T06:00:17.820Z,87.69
2017-03-03T06:01:19.078Z,87.59
2017-03-03T06:02:20.332Z,87.5
2017-03-03T06:03:21.536Z,87.78
2017-03-03T06:04:22.762Z,87.59
2017-03-03T06:05:24.014Z,87.5
2017-03-03T06:06:25.242Z,87.69
2017-03-03T06:07:26.474Z,87.59
2017-03-03T06:08:27.825Z,87.78
2017-03-03T06:09:29.049Z,87.5
2017-03-03T06:10:30.381Z,87.59
2017-03-03T06:11:31.738Z,87.5
2017-03-03T06:12:32.967Z,87.4
2017-03-03T06:13:34.210Z,87.5
2017-03-03T06:14:35.465Z,87.5
2017-03-03T06:15:36.679Z,87.5
2017-03-03T06:16:37.955Z,87.88
2017-03-03T06:17:39.221Z,87.5
2017-03-03T06:18:40.455Z,87.4
2017-03-03T06:19:41.684Z,87.31
2017-03-03T06:20:42.904Z,87.5
2017-03-03T06:21:44.208Z,87.31
2017-03-03T06:22:45.411Z,87.59
2017-03-03T06:23:46.726Z,87.5
2017-03-03T06:24:48.051Z,87.4
2017-03-03T06:25:49.299Z,87.59
2017-03-03T06:26:50.659Z,87.69
2017-03-03T06:27:51.886Z,87.78
2017-03-03T06:28:53.119Z,87.5
2017-03-03T06:29:54.358Z,87.21
2017-03-03T06:30:55.783Z,87.31
2017-03-03T06:31:56.974Z,87.59
2017-03-03T06:32:58.307Z,87.5
2017-03-03T06:33:59.544Z,87.5
2017-03-03T06:35:00.800Z,87.5
2017-03-03T06:36:02.046Z,87.21
2017-03-03T06:37:03.325Z,87.12
2017-03-03T06:38:04.592Z,87.02
2017-03-03T06:39:05.866Z,87.31
2017-03-03T06:40:07.109Z,86.65
2017-03-03T06:41:08.336Z,86.93
2017-03-03T06:42:09.575Z,86.74
2017-03-03T06:43:10.806Z,86.27
2017-03-03T06:44:12.309Z,86.08
2017-03-03T06:45:13.544Z,85.42
2017-03-03T06:46:14.773Z,84.99
2017-03-03T06:47:16.019Z,85.08
2017-03-03T06:48:17.243Z,84.7
2017-03-03T06:49:18.472Z,84.61
2017-03-03T06:50:19.839Z,84.04
2017-03-03T06:51:21.172Z,83.66
2017-03-03T06:52:22.337Z,83.47
2017-03-03T06:53:23.566Z,82.9
2017-03-03T06:54:24.786Z,82.52
2017-03-03T06:55:26.040Z,82.66
2017-03-03T06:56:27.289Z,82.09
2017-03-03T06:57:28.553Z,81.43
2017-03-03T06:58:29.785Z,80.38
2017-03-03T06:59:31.035Z,80.19
2017-03-03T07:00:32.271Z,80.04
2017-03-03T07:01:33.511Z,78.91
2017-03-03T07:02:34.772Z,78.15
2017-03-03T07:03:36.090Z,77.96
2017-03-03T07:04:37.336Z,76.39
2017-03-03T07:05:38.555Z,75.24
2017-03-03T07:06:39.815Z,74.24
2017-03-03T07:07:41.055Z,74.24
2017-03-03T07:08:42.326Z,72.85
2017-03-03T07:09:43.803Z,70.67
2017-03-03T07:10:45.105Z,69.81
2017-03-03T07:11:46.360Z,68.61
2017-03-03T07:12:47.601Z,66.17
2017-03-03T07:13:48.861Z,65.41
2017-03-03T07:14:50.121Z,64.02
2017-03-03T07:15:51.466Z,62.34
2017-03-03T07:16:52.702Z,61.1
2017-03-03T07:17:53.939Z,59.99
2017-03-03T07:18:55.176Z,59.13
2017-03-03T07:19:56.415Z,57.64
2017-03-03T07:20:57.683Z,56.87
2017-03-03T07:21:58.914Z,56.3
2017-03-03T07:23:00.235Z,56.02
2017-03-03T07:24:01.500Z,55.73
2017-03-03T07:25:02.715Z,56.02
2017-03-03T07:26:03.966Z,54.8
2017-03-03T07:27:05.229Z,54.52
2017-03-03T07:28:06.480Z,53.5
2017-03-03T07:29:07.718Z,52.07
2017-03-03T07:30:08.956Z,51.33
2017-03-03T07:31:10.207Z,50.47
2017-03-03T07:32:11.445Z,49.9
2017-03-03T07:33:12.787Z,49.73
2017-03-03T07:34:14.148Z,49.35
2017-03-03T07:35:15.395Z,48.52
2017-03-03T07:36:16.642Z,47.47
2017-03-03T07:37:17.913Z,46.7
2017-03-03T07:38:19.130Z,46.7
2017-03-03T07:39:20.486Z,46.32
2017-03-03T07:40:21.870Z,46.13
2017-03-03T07:41:23.140Z,46.11
2017-03-03T07:42:24.370Z,46.42
2017-03-03T07:43:25.635Z,46.32
2017-03-03T07:44:26.866Z,46.03
2017-03-03T07:45:28.131Z,46.13
2017-03-03T07:46:29.338Z,45.01
2017-03-03T07:47:30.629Z,44.91
2017-03-03T07:48:31.874Z,44.51
2017-03-03T07:49:33.113Z,45.08
2017-03-03T07:50:34.410Z,44.6
2017-03-03T07:51:35.683Z,44.41
2017-03-03T07:52:36.919Z,44.7
2017-03-03T07:53:38.159Z,45.27
2017-03-03T07:54:39.414Z,45.1
2017-03-03T07:55:40.659Z,44.24
2017-03-03T07:56:41.904Z,43.3
2017-03-03T07:57:43.157Z,43.12
2017-03-03T07:58:44.396Z,42.85
2017-03-03T07:59:45.674Z,41.13
2017-03-03T08:00:46.943Z,40.75
2017-03-03T08:01:48.188Z,41.61
2017-03-03T08:02:49.461Z,41.32
2017-03-03T08:03:50.692Z,40.94
2017-03-03T08:04:51.999Z,41.11
2017-03-03T08:05:53.194Z,42.35
2017-03-03T08:06:54.460Z,42.54
2017-03-03T08:07:55.699Z,42.35
2017-03-03T08:08:56.955Z,42.25
2017-03-03T08:09:58.187Z,41.78
2017-03-03T08:10:59.429Z,41.87
2017-03-03T08:12:00.679Z,42.07
2017-03-03T08:13:02.092Z,42.25
2017-03-03T08:14:03.374Z,41.97
2017-03-03T08:15:04.583Z,42.25
2017-03-03T08:16:05.909Z,42.35
2017-03-03T08:17:07.069Z,42.25
2017-03-03T08:18:08.424Z,41.87
2017-03-03T08:19:09.768Z,42.08
2017-03-03T08:20:11.028Z,41.7
2017-03-03T08:21:12.308Z,40.75
2017-03-03T08:22:13.600Z,39.89
2017-03-03T08:23:14.977Z,40.46
2017-03-03T08:24:16.305Z,39.23
2017-03-03T08:25:17.559Z,38.49
2017-03-03T08:26:18.829Z,38.01
2017-03-03T08:27:20.061Z,37.34
2017-03-03T08:28:21.339Z,37.36
2017-03-03T08:29:22.564Z,36.22
2017-03-03T08:30:23.869Z,35.46
2017-03-03T08:31:25.132Z,35.27
2017-03-03T08:32:26.367Z,34.81
2017-03-03T08:33:27.621Z,34.04
2017-03-03T08:34:28.870Z,34.12
2017-03-03T08:35:30.108Z,34.41
2017-03-03T08:36:31.355Z,34.23
2017-03-03T08:37:32.665Z,33.56
2017-03-03T08:38:33.901Z,33.47
2017-03-03T08:39:35.156Z,33.65
2017-03-03T08:40:36.413Z,33.77
2017-03-03T08:41:37.672Z,33.11
2017-03-03T08:42:38.909Z,31.69
2017-03-03T08:43:40.195Z,30.65
2017-03-03T08:44:41.423Z,29.59
2017-03-03T08:45:42.664Z,29.59
2017-03-03T08:46:43.982Z,29
2017-03-03T08:47:45.148Z,29.38
2017-03-03T08:48:46.462Z,29.67
2017-03-03T08:49:47.710Z,30.14
2017-03-03T08:50:48.963Z,30.14
2017-03-03T08:51:50.235Z,31.54
2017-03-03T08:52:51.520Z,32.21
2017-03-03T08:53:52.827Z,32.31
2017-03-03T08:54:54.253Z,33.08
2017-03-03T08:55:55.498Z,33.19
2017-03-03T08:56:56.770Z,33.29
2017-03-03T08:57:58.058Z,31.87
2017-03-03T08:58:59.346Z,30.9
2017-03-03T09:00:00.638Z,30.79
2017-03-03T09:01:01.977Z,30.81
2017-03-03T09:02:03.334Z,30.35
2017-03-03T09:03:04.585Z,29.38
2017-03-03T09:04:05.836Z,29.79
2017-03-03T09:05:07.108Z,29.4
2017-03-03T09:06:08.384Z,29.02
2017-03-03T09:07:09.679Z,28.55
2017-03-03T09:08:10.912Z,28.55
2017-03-03T09:09:12.164Z,28.07
2017-03-03T09:10:13.425Z,28.08
2017-03-03T09:11:14.697Z,27.22
2017-03-03T09:12:16.097Z,26.84
2017-03-03T09:13:17.361Z,26.56
2017-03-03T09:14:18.617Z,26.65
2017-03-03T09:15:19.862Z,26.46
2017-03-03T09:16:21.119Z,26.36
2017-03-03T09:17:22.362Z,25.88
2017-03-03T09:18:23.800Z,25.88
2017-03-03T09:19:25.005Z,26.16
2017-03-03T09:20:26.253Z,26.54
2017-03-03T09:21:27.504Z,27.01
2017-03-03T09:22:28.757Z,26.82
2017-03-03T09:23:30.055Z,27.12
2017-03-03T09:24:31.308Z,27.67
2017-03-03T09:25:32.575Z,28.81
2017-03-03T09:26:33.805Z,29.85
2017-03-03T09:27:35.076Z,30.68
2017-03-03T09:28:36.438Z,31.92
2017-03-03T09:29:37.718Z,33.43
2017-03-03T09:30:38.991Z,33.91
2017-03-03T09:31:40.367Z,34
2017-03-03T09:32:41.618Z,34.69
2017-03-03T09:33:42.901Z,34.48
2017-03-03T09:34:44.201Z,33.91
2017-03-03T09:35:45.456Z,34.56
2017-03-03T09:36:46.781Z,35.24
2017-03-03T09:37:48.048Z,35.24
2017-03-03T09:38:49.304Z,35.16
2017-03-03T09:39:50.564Z,34.77
2017-03-03T09:40:51.810Z,34.87
2017-03-03T09:41:53.082Z,35.16
2017-03-03T09:42:54.416Z,35.14
2017-03-03T09:43:55.689Z,35.04
2017-03-03T09:44:56.935Z,35.96
2017-03-03T09:45:58.205Z,37.4
2017-03-03T09:46:59.452Z,37.97
2017-03-03T09:48:00.698Z,37.97
2017-03-03T09:49:01.986Z,37.49
2017-03-03T09:50:03.348Z,38.26
2017-03-03T09:51:04.593Z,37.97
2017-03-03T09:52:05.858Z,38.18
2017-03-03T09:53:07.085Z,38.45
2017-03-03T09:54:08.377Z,38.26
2017-03-03T09:55:09.683Z,38.17
2017-03-03T09:56:10.955Z,38.54
2017-03-03T09:57:12.173Z,38.91
2017-03-03T09:58:13.413Z,39.56
2017-03-03T09:59:14.673Z,40.97
2017-03-03T10:00:15.936Z,41.83
2017-03-03T10:01:17.197Z,42.21
2017-03-03T10:02:18.522Z,42.69
2017-03-03T10:03:19.784Z,42.6
2017-03-03T10:04:21.029Z,42.6
2017-03-03T10:05:22.300Z,42.88
2017-03-03T10:06:23.518Z,43.07
2017-03-03T10:07:24.878Z,44.2
2017-03-03T10:08:26.142Z,43.91
2017-03-03T10:09:27.485Z,44.96
2017-03-03T10:10:28.729Z,44.96
2017-03-03T10:11:29.978Z,45.15
2017-03-03T10:12:31.238Z,44.96
2017-03-03T10:13:32.497Z,45.13
2017-03-03T10:14:33.735Z,46.08
2017-03-03T10:15:34.986Z,45.99
2017-03-03T10:16:36.231Z,45.89
2017-03-03T10:17:37.467Z,45.63
2017-03-03T10:18:38.722Z,45.06
2017-03-03T10:19:39.984Z,45.43
2017-03-03T10:20:41.242Z,45.32
2017-03-03T10:21:42.509Z,45.06
2017-03-03T10:22:43.733Z,45.34
2017-03-03T10:23:44.994Z,45.34
2017-03-03T10:24:46.361Z,45.34
2017-03-03T10:25:47.573Z,45.15
2017-03-03T10:26:48.816Z,45.25
2017-03-03T10:27:50.067Z,45.79
2017-03-03T10:28:51.316Z,45.61
2017-03-03T10:29:52.560Z,46.08
2017-03-03T10:30:53.794Z,46.08
2017-03-03T10:31:55.041Z,45.89
2017-03-03T10:32:56.544Z,45.63
2017-03-03T10:33:57.839Z,45.63
2017-03-03T10:34:59.054Z,45.43
2017-03-03T10:36:00.301Z,45.25
2017-03-03T10:37:01.548Z,44.7
2017-03-03T10:38:02.789Z,44.12
2017-03-03T10:39:04.069Z,43.38
2017-03-03T10:40:05.359Z,43.4
2017-03-03T10:41:06.597Z,41.87
2017-03-03T10:42:07.849Z,40.46
2017-03-03T10:43:09.127Z,40
2017-03-03T10:44:10.465Z,38.56
2017-03-03T10:45:11.772Z,37.82
2017-03-03T10:46:13.037Z,36.38
2017-03-03T10:47:14.293Z,36.19
2017-03-03T10:48:15.535Z,36.65
2017-03-03T10:49:16.839Z,37.23
2017-03-03T10:50:18.134Z,37.34
2017-03-03T10:51:19.335Z,37.53
2017-03-03T10:52:20.563Z,36.57
2017-03-03T10:53:21.808Z,36.3
2017-03-03T10:54:23.055Z,36.1
2017-03-03T10:55:24.395Z,37.04
2017-03-03T10:56:25.673Z,37.61
2017-03-03T10:57:26.925Z,37.99
2017-03-03T10:58:28.180Z,37.9
2017-03-03T10:59:29.441Z,37.51
2017-03-03T11:00:30.711Z,37.41
2017-03-03T11:01:31.960Z,38.09
2017-03-03T11:02:33.269Z,37.61
2017-03-03T11:03:34.580Z,37.51
2017-03-03T11:04:35.807Z,37.23
2017-03-03T11:05:37.045Z,37.88
2017-03-03T11:06:38.297Z,38.64
2017-03-03T11:07:39.553Z,38.74
2017-03-03T11:08:41.484Z,38.83
2017-03-03T11:09:42.733Z,38.93
2017-03-03T11:10:43.972Z,38.35
2017-03-03T11:11:45.237Z,38.45
2017-03-03T11:12:46.500Z,38.26
2017-03-03T11:13:47.765Z,38.71
2017-03-03T11:14:49.002Z,39.47
2017-03-03T11:15:50.282Z,41.16
2017-03-03T11:16:51.508Z,41.74
2017-03-03T11:17:52.747Z,42.11
2017-03-03T11:18:54.156Z,42.21
2017-03-03T11:19:55.416Z,43.26
2017-03-03T11:20:56.667Z,42.79
2017-03-03T11:21:57.931Z,42.79
2017-03-03T11:22:59.213Z,42.97
2017-03-03T11:24:00.371Z,43.17
2017-03-03T11:25:01.610Z,43.24
2017-03-03T11:26:02.940Z,43.33
2017-03-03T11:27:04.218Z,43.15
2017-03-03T11:28:05.439Z,43.05
2017-03-03T11:29:06.688Z,43.05
2017-03-03T11:30:07.927Z,43.15
2017-03-03T11:31:09.198Z,43.15
2017-03-03T11:32:10.445Z,43.24
2017-03-03T11:33:11.701Z,43.33
2017-03-03T11:34:12.936Z,43.53
2017-03-03T11:35:14.173Z,43.15
2017-03-03T11:36:15.420Z,43.62
2017-03-03T11:37:16.661Z,43.43
2017-03-03T11:38:17.899Z,43.26
2017-03-03T11:39:19.137Z,43.07
2017-03-03T11:40:20.407Z,43.07
2017-03-03T11:41:21.706Z,42.6
2017-03-03T11:42:22.926Z,42.88
2017-03-03T11:43:24.187Z,43.07
2017-03-03T11:44:25.447Z,42.31
2017-03-03T11:45:26.719Z,42.88
2017-03-03T11:46:27.969Z,42.5
2017-03-03T11:47:29.230Z,42.43
2017-03-03T11:48:30.463Z,41.83
2017-03-03T11:49:31.702Z,41.75
2017-03-03T11:50:32.948Z,41.83
2017-03-03T11:51:34.249Z,41.55
2017-03-03T11:52:35.487Z,41.74
2017-03-03T11:53:36.715Z,41.64
2017-03-03T11:54:37.960Z,42.21
2017-03-03T11:55:39.216Z,42.69
2017-03-03T11:56:40.553Z,42.33
2017-03-03T11:57:41.781Z,42.02
2017-03-03T11:58:43.024Z,41.55
2017-03-03T11:59:44.275Z,41.55
2017-03-03T12:00:45.510Z,42.19
2017-03-03T12:01:46.749Z,42.77
2017-03-03T12:02:48.000Z,42.36
2017-03-03T12:03:49.239Z,42.74
2017-03-03T12:04:50.495Z,42.93
2017-03-03T12:05:51.747Z,42.93
2017-03-03T12:06:53.002Z,43.32
2017-03-03T12:07:54.238Z,43.22
2017-03-03T12:08:55.545Z,43.03
2017-03-03T12:09:56.871Z,42.74
2017-03-03T12:10:58.193Z,42.38
2017-03-03T12:11:59.470Z,41.91
2017-03-03T12:13:00.694Z,41.43
2017-03-03T12:14:01.950Z,41.52
2017-03-03T12:15:03.180Z,40.76
2017-03-03T12:16:04.442Z,40.4
2017-03-03T12:17:05.707Z,39.64
2017-03-03T12:18:06.937Z,39.73
2017-03-03T12:19:08.175Z,39.25
2017-03-03T12:20:09.453Z,39.25
2017-03-03T12:21:10.665Z,39.35
2017-03-03T12:22:11.939Z,38.96
2017-03-03T12:23:13.172Z,38.68
2017-03-03T12:24:14.562Z,38.96
2017-03-03T12:25:15.820Z,39.32
2017-03-03T12:26:17.052Z,39.23
2017-03-03T12:27:18.291Z,39.32
2017-03-03T12:28:19.528Z,39.52
2017-03-03T12:29:20.823Z,39.23
2017-03-03T12:30:22.136Z,39.04
2017-03-03T12:31:23.487Z,39.42
2017-03-03T12:32:24.718Z,39.31
2017-03-03T12:33:25.954Z,39.5
2017-03-03T12:34:27.209Z,39.69
2017-03-03T12:35:28.466Z,39.71
2017-03-03T12:36:29.672Z,39.71
2017-03-03T12:37:30.913Z,38.66
2017-03-03T12:38:32.263Z,38.49
2017-03-03T12:39:33.551Z,38.3
2017-03-03T12:40:34.804Z,38.3
2017-03-03T12:41:36.045Z,38.58
2017-03-03T12:42:37.295Z,38.68
2017-03-03T12:43:38.736Z,39.06
2017-03-03T12:44:39.965Z,38.78
2017-03-03T12:45:41.204Z,38.68
2017-03-03T12:46:42.533Z,38.58
2017-03-03T12:47:43.754Z,38.58
2017-03-03T12:48:45.001Z,38.58
2017-03-03T12:49:46.268Z,38.78
2017-03-03T12:50:47.513Z,38.68
2017-03-03T12:51:48.739Z,38.78
2017-03-03T12:52:49.991Z,38.78
2017-03-03T12:53:51.244Z,38.49
2017-03-03T12:54:52.525Z,38.87
2017-03-03T12:55:53.798Z,39.44
2017-03-03T12:56:55.055Z,39.81
2017-03-03T12:57:56.294Z,40.47
2017-03-03T12:58:57.549Z,40.57
2017-03-03T12:59:58.798Z,39.9
2017-03-03T13:01:00.127Z,40.59
2017-03-03T13:02:01.361Z,39.83
2017-03-03T13:03:02.711Z,39.25
2017-03-03T13:04:03.971Z,39.25
2017-03-03T13:05:05.189Z,39.54
2017-03-03T13:06:06.461Z,39.52
2017-03-03T13:07:07.710Z,39.32
2017-03-03T13:08:08.970Z,39.4
2017-03-03T13:09:10.217Z,39.59
2017-03-03T13:10:11.567Z,40.28
2017-03-03T13:11:12.831Z,40.64
2017-03-03T13:12:14.062Z,40.57